Time;durP1;ratioP1;P1;durP2;ratioP2;P2;SDS_P1;SDS_P2;PMS_P1;PMS_P2;Temp;Humidity;BMP_temperature;BMP_pressure;BME280_temperature;BME280_humidity;BME280_pressure;Samples;Min_cycle;Max_cycle;Signal;HPM_P1;HPM_P2
2021/05/07 00:00:05;;;;;;;14.88;10.85;;;;;;;6.15;100.00;97259.34;4975444;28;20038;-83
2021/05/07 00:02:31;;;;;;;14.63;10.38;;;;;;;6.12;100.00;97253.66;4975459;28;20069;-81
2021/05/07 00:04:56;;;;;;;12.23;9.90;;;;;;;6.21;100.00;97247.34;4962865;28;20492;-85
2021/05/07 00:07:22;;;;;;;13.35;9.45;;;;;;;6.31;100.00;97244.53;4956189;28;20508;-83
2021/05/07 00:09:47;;;;;;;16.90;11.52;;;;;;;6.29;100.00;97241.31;4956528;28;20039;-87
2021/05/07 00:12:12;;;;;;;13.48;10.57;;;;;;;6.37;100.00;97251.53;4955887;28;20392;-83
2021/05/07 00:14:38;;;;;;;14.80;10.18;;;;;;;6.37;100.00;97248.81;4956923;28;20027;-87
2021/05/07 00:17:06;;;;;;;14.02;10.32;;;;;;;6.21;100.00;97232.94;4956914;28;20114;-85
2021/05/07 00:19:31;;;;;;;17.27;11.98;;;;;;;6.24;100.00;97246.75;4959287;28;20034;-86
2021/05/07 00:21:57;;;;;;;20.48;12.52;;;;;;;6.37;100.00;97246.09;4975783;28;20026;-86
2021/05/07 00:24:22;;;;;;;16.02;12.57;;;;;;;6.30;100.00;97240.19;4975820;28;20456;-85
2021/05/07 00:26:48;;;;;;;17.27;12.75;;;;;;;6.34;100.00;97229.56;4976450;28;20085;-84
2021/05/07 00:29:13;;;;;;;21.23;14.20;;;;;;;6.22;100.00;97227.25;4975994;28;20660;-82
2021/05/07 00:31:39;;;;;;;19.13;13.57;;;;;;;6.27;100.00;97218.22;4974848;28;20042;-86
2021/05/07 00:34:05;;;;;;;21.65;13.85;;;;;;;6.30;100.00;97214.94;4975791;28;20629;-85
2021/05/07 00:36:30;;;;;;;20.20;14.05;;;;;;;6.32;100.00;97216.28;4975371;28;20034;-84
2021/05/07 00:38:56;;;;;;;19.15;13.35;;;;;;;6.33;100.00;97217.06;4975808;28;20050;-85
2021/05/07 00:41:21;;;;;;;21.00;13.32;;;;;;;6.19;100.00;97210.72;4974768;28;20126;-86
2021/05/07 00:43:47;;;;;;;27.35;16.90;;;;;;;6.06;100.00;97208.66;4973163;28;20030;-84
2021/05/07 00:46:12;;;;;;;24.17;15.60;;;;;;;6.15;100.00;97204.22;4973246;28;20031;-87
2021/05/07 00:48:39;;;;;;;23.40;15.13;;;;;;;6.05;100.00;97205.13;4974634;28;20467;-82
2021/05/07 00:51:04;;;;;;;28.05;15.93;;;;;;;6.13;100.00;97204.53;4974483;28;20027;-81
2021/05/07 00:53:30;;;;;;;21.80;14.88;;;;;;;6.08;100.00;97201.84;4976691;28;20035;-84
2021/05/07 00:55:55;;;;;;;22.60;15.48;;;;;;;6.16;100.00;97198.53;4979056;28;20396;-85
2021/05/07 00:58:21;;;;;;;17.52;13.00;;;;;;;6.36;100.00;97200.22;4976024;28;20042;-81
2021/05/07 01:00:51;;;;;;;23.60;15.13;;;;;;;6.27;100.00;97191.88;4974564;28;20027;-82
2021/05/07 01:03:17;;;;;;;23.40;15.45;;;;;;;6.29;100.00;97191.63;4974654;28;20494;-87
2021/05/07 01:05:42;;;;;;;22.00;14.15;;;;;;;6.28;100.00;97198.13;4973040;28;20031;-84
2021/05/07 01:08:08;;;;;;;20.90;14.57;;;;;;;6.29;100.00;97192.44;4974175;28;20118;-83
2021/05/07 01:10:35;;;;;;;22.45;13.98;;;;;;;6.32;100.00;97194.56;4972851;28;20038;-82
2021/05/07 01:13:00;;;;;;;23.50;14.90;;;;;;;6.38;100.00;97198.03;4974532;28;20022;-83
2021/05/07 01:15:26;;;;;;;32.65;17.60;;;;;;;6.31;100.00;97192.13;4974061;28;20527;-83
2021/05/07 01:17:54;;;;;;;36.22;17.65;;;;;;;6.33;100.00;97187.22;4974611;28;20037;-86
2021/05/07 01:20:31;;;;;;;30.50;18.20;;;;;;;6.35;100.00;97190.47;4974642;28;20051;-85
2021/05/07 01:23:01;;;;;;;29.40;18.20;;;;;;;6.29;100.00;97189.72;4973779;28;20499;-85
2021/05/07 01:25:29;;;;;;;41.05;21.77;;;;;;;6.23;100.00;97184.63;4974283;28;20038;-85
2021/05/07 01:28:01;;;;;;;37.85;20.17;;;;;;;6.29;100.00;97184.28;4974629;28;20195;-85
2021/05/07 01:30:32;;;;;;;40.53;20.85;;;;;;;6.20;100.00;97182.47;4974467;28;20467;-85
2021/05/07 01:32:58;;;;;;;36.67;20.90;;;;;;;6.37;100.00;97180.09;4972648;28;20150;-86
2021/05/07 01:35:26;;;;;;;35.83;20.67;;;;;;;6.32;100.00;97172.84;4973389;28;20121;-82
2021/05/07 01:37:54;;;;;;;35.58;20.38;;;;;;;6.44;100.00;97170.53;4973618;28;20027;-84
2021/05/07 01:40:24;;;;;;;33.28;20.45;;;;;;;6.46;100.00;97171.03;4966386;28;20031;-81
2021/05/07 01:42:52;;;;;;;36.50;20.08;;;;;;;6.60;100.00;97165.75;4954471;28;20043;-82
2021/05/07 01:45:21;;;;;;;30.33;17.23;;;;;;;6.55;100.00;97156.84;4953121;28;20031;-82
2021/05/07 01:47:49;;;;;;;25.42;17.70;;;;;;;6.61;100.00;97153.75;4954282;28;20026;-84
2021/05/07 01:50:17;;;;;;;29.83;17.50;;;;;;;6.61;100.00;97155.69;4954641;28;20484;-84
2021/05/07 01:52:42;;;;;;;27.80;16.85;;;;;;;6.61;100.00;97147.53;4953689;28;20035;-81
2021/05/07 01:55:11;;;;;;;28.85;17.90;;;;;;;6.67;100.00;97147.16;4953772;28;20464;-84
2021/05/07 01:57:39;;;;;;;27.45;15.63;;;;;;;6.75;100.00;97145.72;4953969;28;20039;-84
2021/05/07 02:00:25;;;;;;;26.65;16.25;;;;;;;6.72;100.00;97143.59;4952679;28;20039;-82
2021/05/07 02:02:51;;;;;;;;;;;;;;;6.50;100.00;97143.31;4953218;28;20032;-83
2021/05/07 02:05:20;;;;;;;30.27;17.38;;;;;;;6.54;100.00;97134.31;4953991;28;19906;-82
2021/05/07 02:07:46;;;;;;;28.35;16.77;;;;;;;6.63;100.00;97123.59;4953837;28;20045;-84
2021/05/07 02:10:15;;;;;;;27.23;16.00;;;;;;;6.64;100.00;97130.66;4967095;28;20027;-85
2021/05/07 02:12:40;;;;;;;25.63;15.35;;;;;;;6.57;100.00;97135.63;4972479;28;20121;-84
2021/05/07 02:15:09;;;;;;;23.63;15.20;;;;;;;6.57;100.00;97135.63;4971836;28;20142;-85
2021/05/07 02:17:35;;;;;;;24.95;15.63;;;;;;;6.59;100.00;97136.94;4972932;28;20027;-83
2021/05/07 02:20:00;;;;;;;23.35;16.02;;;;;;;6.74;100.00;97139.47;4972214;28;20043;-85
2021/05/07 02:22:26;;;;;;;27.35;16.42;;;;;;;6.57;100.00;97125.56;4973083;28;20484;-85
2021/05/07 02:24:52;;;;;;;24.17;15.60;;;;;;;6.69;100.00;97127.88;4972973;28;20037;-85
2021/05/07 02:27:17;;;;;;;26.77;15.55;;;;;;;6.71;100.00;97117.50;4973403;28;20062;-83
2021/05/07 02:29:43;;;;;;;23.05;15.85;;;;;;;6.73;100.00;97129.72;4972984;28;20039;-85
2021/05/07 02:32:08;;;;;;;23.98;16.30;;;;;;;6.81;100.00;97136.41;4972982;28;20134;-84
2021/05/07 02:34:33;;;;;;;26.90;16.83;;;;;;;6.75;100.00;97132.94;4972616;28;20493;-84
2021/05/07 02:36:59;;;;;;;21.73;13.90;;;;;;;6.78;100.00;97131.56;4972578;28;20030;-81
2021/05/07 02:39:24;;;;;;;22.30;15.35;;;;;;;6.86;100.00;97133.63;4972661;28;20495;-87
2021/05/07 02:41:50;;;;;;;21.75;14.65;;;;;;;6.81;100.00;97122.81;4964481;28;20031;-82
2021/05/07 02:44:15;;;;;;;22.75;14.95;;;;;;;6.63;100.00;97120.88;4972468;28;20028;-83
2021/05/07 02:46:41;;;;;;;21.20;13.27;;;;;;;6.58;100.00;97118.25;4972329;28;20045;-85
2021/05/07 02:49:07;;;;;;;21.92;13.98;;;;;;;6.63;100.00;97118.97;4972583;28;20086;-85
2021/05/07 02:51:34;;;;;;;23.60;13.75;;;;;;;6.69;100.00;97131.41;4972747;28;20114;-82
2021/05/07 02:54:00;;;;;;;20.02;15.35;;;;;;;6.65;100.00;97127.63;4972399;28;20030;-82
2021/05/07 02:56:25;;;;;;;22.73;15.07;;;;;;;6.58;100.00;97116.31;4972395;28;20034;-83
2021/05/07 02:58:51;;;;;;;23.05;13.45;;;;;;;6.69;100.00;97127.88;4971554;28;20066;-82
2021/05/07 03:01:17;;;;;;;20.92;14.55;;;;;;;6.65;100.00;97113.25;4971065;28;20027;-80
2021/05/07 03:03:42;;;;;;;19.80;14.93;;;;;;;6.68;100.00;97115.38;4972025;28;20157;-82
2021/05/07 03:06:08;;;;;;;22.17;13.65;;;;;;;6.66;100.00;97101.28;4972291;28;20133;-83
2021/05/07 03:08:33;;;;;;;25.65;13.65;;;;;;;6.68;100.00;97109.94;4970993;28;20476;-84
2021/05/07 03:10:59;;;;;;;22.80;15.52;;;;;;;6.62;100.00;97100.22;4971640;28;20034;-82
2021/05/07 03:13:24;;;;;;;25.20;14.02;;;;;;;6.69;100.00;97120.53;4978652;28;20018;-83
2021/05/07 03:15:50;;;;;;;21.83;13.93;;;;;;;6.69;100.00;97122.44;4979555;28;20026;-82
2021/05/07 03:18:17;;;;;;;23.02;14.15;;;;;;;6.73;100.00;97131.63;4973949;28;20117;-82
2021/05/07 03:20:43;;;;;;;19.42;14.40;;;;;;;6.69;100.00;97122.44;4972252;28;20487;-78
2021/05/07 03:23:12;;;;;;;19.42;13.63;;;;;;;6.74;100.00;97114.19;4971740;28;20038;-83
2021/05/07 03:25:38;;;;;;;17.08;13.63;;;;;;;6.79;100.00;97127.75;4970304;28;20019;-82
2021/05/07 03:31:09;;;;;;;15.10;11.02;;;;;;;6.86;100.00;97117.34;4971442;28;20150;-83
2021/05/07 03:33:36;;;;;;;18.17;12.93;;;;;;;6.79;100.00;97127.75;4971170;28;20027;-83
2021/05/07 03:36:03;;;;;;;18.98;11.68;;;;;;;6.86;100.00;97129.00;4969359;28;20023;-81
2021/05/07 03:38:29;;;;;;;17.38;12.57;;;;;;;6.70;100.00;97124.06;4970820;28;20034;-81
2021/05/07 03:40:54;;;;;;;18.75;12.82;;;;;;;6.65;100.00;97124.09;4969659;28;20035;-86
2021/05/07 03:43:20;;;;;;;20.67;14.55;;;;;;;6.72;100.00;97130.00;4968073;28;20039;-84
2021/05/07 03:45:45;;;;;;;21.63;13.63;;;;;;;6.74;100.00;97130.50;4971382;28;20018;-81
2021/05/07 03:48:21;;;;;;;16.90;12.40;;;;;;;6.90;100.00;97134.66;4972011;28;20022;-84
2021/05/07 03:50:48;;;;;;;25.60;13.60;;;;;;;6.76;100.00;97133.75;4972264;28;20391;-83
2021/05/07 03:53:15;;;;;;;18.90;13.32;;;;;;;6.77;100.00;97148.94;4971273;28;20050;-83
2021/05/07 03:55:41;;;;;;;22.05;14.80;;;;;;;6.73;100.00;97146.03;4970799;28;20042;-83
2021/05/07 03:58:08;;;;;;;21.15;16.48;;;;;;;6.77;100.00;97148.94;4971120;28;20019;-83
2021/05/07 04:00:33;;;;;;;20.88;14.70;;;;;;;6.82;100.00;97146.19;4971201;28;20019;-83
2021/05/07 04:02:59;;;;;;;21.42;14.90;;;;;;;6.74;100.00;97131.31;4971057;28;20503;-82
2021/05/07 04:05:25;;;;;;;24.38;15.68;;;;;;;6.70;100.00;97134.94;4969870;28;20058;-81
2021/05/07 04:08:24;;;;;;;23.38;15.23;;;;;;;6.73;100.00;97145.22;4970961;28;20079;-80
2021/05/07 04:13:42;;;;;;;19.92;15.32;;;;;;;6.71;100.00;97159.09;4949333;28;20157;-83
2021/05/07 04:16:09;;;;;;;19.40;14.90;;;;;;;6.83;100.00;97158.66;4969968;28;20042;-83
2021/05/07 04:18:35;;;;;;;21.92;14.80;;;;;;;6.94;100.00;97147.38;4970866;28;20035;-81
2021/05/07 04:21:01;;;;;;;18.70;13.90;;;;;;;6.90;100.00;97162.66;4971049;28;20031;-81
2021/05/07 04:23:27;;;;;;;20.25;14.38;;;;;;;6.94;100.00;97141.13;4970996;28;20022;-85
2021/05/07 04:25:53;;;;;;;18.50;14.63;;;;;;;6.92;100.00;97156.94;4969316;28;20031;-82
2021/05/07 04:28:44;;;;;;;18.88;13.98;;;;;;;6.94;100.00;97157.44;4970952;28;20113;-80
2021/05/07 04:31:10;;;;;;;19.60;14.52;;;;;;;6.91;100.00;97163.47;4970438;28;20055;-77
2021/05/07 04:33:35;;;;;;;23.17;18.45;;;;;;;6.82;100.00;97166.03;4968074;28;20035;-80
2021/05/07 04:36:01;;;;;;;20.27;14.77;;;;;;;6.85;100.00;97176.31;4981200;28;20022;-86
2021/05/07 04:38:26;;;;;;;19.27;14.52;;;;;;;6.99;100.00;97160.09;4975519;28;20392;-83
2021/05/07 04:40:52;;;;;;;19.50;15.15;;;;;;;7.02;100.00;97164.94;4973936;28;20031;-84
2021/05/07 04:43:17;;;;;;;19.10;12.93;;;;;;;7.00;100.00;97172.59;4973715;28;20073;-81
2021/05/07 04:45:43;;;;;;;17.67;14.45;;;;;;;7.01;100.00;97157.91;4972884;28;20142;-81
2021/05/07 04:48:13;;;;;;;18.30;15.10;;;;;;;7.04;100.00;97168.19;4973986;28;20486;-78
2021/05/07 04:50:39;;;;;;;17.88;13.35;;;;;;;7.14;100.00;97159.88;4972249;28;20428;-78
2021/05/07 04:53:04;;;;;;;18.13;14.15;;;;;;;7.12;100.00;97174.88;4972202;28;20034;-78
2021/05/07 04:55:30;;;;;;;18.65;14.18;;;;;;;7.03;100.00;97177.44;4973179;28;20034;-77
2021/05/07 04:57:55;;;;;;;18.92;14.85;;;;;;;7.12;100.00;97172.97;4972581;28;20035;-77
2021/05/07 05:00:21;;;;;;;19.77;15.93;;;;;;;7.05;100.00;97161.63;4972693;28;20081;-77
2021/05/07 05:02:47;;;;;;;17.13;13.60;;;;;;;7.09;100.00;97162.69;4954530;28;20039;-76
2021/05/07 05:05:15;;;;;;;19.25;14.82;;;;;;;7.14;100.00;97162.59;4971521;28;20030;-76
2021/05/07 05:07:47;;;;;;;20.58;15.32;;;;;;;7.20;100.00;97158.72;4972685;28;20077;-79
2021/05/07 05:10:12;;;;;;;18.33;13.98;;;;;;;7.25;100.00;97168.72;4977333;28;20023;-78
2021/05/07 05:12:37;;;;;;;19.42;14.57;;;;;;;7.30;100.00;97177.59;4970814;28;20104;-78
2021/05/07 05:15:03;;;;;;;19.30;16.05;;;;;;;7.28;100.00;97177.09;4975379;28;20038;-76
2021/05/07 05:17:29;;;;;;;20.38;15.50;;;;;;;7.33;100.00;97177.03;4972250;28;20054;-79
2021/05/07 05:19:54;;;;;;;20.17;15.25;;;;;;;7.34;100.00;97178.66;4972807;28;20034;-78
2021/05/07 05:22:20;;;;;;;21.50;15.40;;;;;;;7.32;100.00;97169.97;4971245;28;20619;-78
2021/05/07 05:24:45;;;;;;;19.30;15.23;;;;;;;7.28;100.00;97170.84;4972442;28;20026;-77
2021/05/07 05:27:11;;;;;;;20.05;15.85;;;;;;;7.24;100.00;97172.53;4971299;28;20392;-77
2021/05/07 05:29:36;;;;;;;20.00;15.30;;;;;;;7.25;100.00;97185.03;4974656;28;20022;-76
2021/05/07 05:32:02;;;;;;;20.67;14.57;;;;;;;7.29;100.00;97176.00;4977763;28;20062;-80
2021/05/07 05:34:27;;;;;;;23.67;16.30;;;;;;;7.29;100.00;97178.72;4973988;28;20033;-76
2021/05/07 05:36:53;;;;;;;18.83;14.73;;;;;;;7.26;100.00;97189.38;4971271;28;20027;-75
2021/05/07 05:39:18;;;;;;;21.02;15.77;;;;;;;7.30;100.00;97174.09;4972247;28;20680;-80
2021/05/07 05:41:44;;;;;;;20.67;15.20;;;;;;;7.31;100.00;97178.41;4972783;28;20500;-79
2021/05/07 05:44:10;;;;;;;21.17;15.75;;;;;;;7.21;100.00;97168.50;4973650;28;20174;-79
2021/05/07 05:46:37;;;;;;;22.02;16.70;;;;;;;7.16;100.00;97168.56;4971094;28;20038;-79
2021/05/07 05:49:03;;;;;;;22.98;17.95;;;;;;;7.24;100.00;97159.75;4973217;28;20105;-78
2021/05/07 05:51:28;;;;;;;21.63;17.10;;;;;;;7.35;100.00;97168.56;4974257;28;20444;-78
2021/05/07 05:53:54;;;;;;;27.02;17.98;;;;;;;7.33;100.00;97170.78;4972346;28;20117;-83
2021/05/07 05:56:19;;;;;;;24.23;17.20;;;;;;;7.44;100.00;97172.25;4974056;28;20110;-79
2021/05/07 05:58:45;;;;;;;20.92;15.48;;;;;;;7.66;100.00;97164.31;4972242;28;20093;-79
2021/05/07 06:01:13;;;;;;;22.88;16.55;;;;;;;7.74;100.00;97166.34;4980341;28;20050;-81
2021/05/07 06:03:38;;;;;;;18.27;16.00;;;;;;;8.10;100.00;97166.56;4971083;28;20027;-79
2021/05/07 06:06:04;;;;;;;20.63;14.82;;;;;;;7.77;100.00;97163.03;4969254;28;20026;-79
2021/05/07 06:08:29;;;;;;;24.08;14.82;;;;;;;7.86;100.00;97157.72;4972519;28;20038;-77
2021/05/07 06:10:56;;;;;;;24.80;14.13;;;;;;;7.91;100.00;97161.16;4972742;28;20062;-83
2021/05/07 06:13:21;;;;;;;21.98;14.77;;;;;;;7.90;100.00;97172.34;4972221;28;20019;-81
2021/05/07 06:15:47;;;;;;;20.42;14.73;;;;;;;7.86;100.00;97176.78;4971338;28;20741;-83
2021/05/07 06:18:12;;;;;;;19.67;14.68;;;;;;;8.19;100.00;97178.41;4971003;28;20031;-81
2021/05/07 06:20:37;;;;;;;20.35;14.90;;;;;;;7.95;100.00;97183.16;4972648;28;20113;-79
2021/05/07 06:23:03;;;;;;;19.63;14.30;;;;;;;7.80;100.00;97169.81;4971966;28;20027;-81
2021/05/07 06:25:29;;;;;;;15.30;12.18;;;;;;;7.78;100.00;97177.44;4968747;28;20019;-78
2021/05/07 06:27:55;;;;;;;15.93;12.63;;;;;;;7.85;100.00;97177.88;4970835;28;20486;-83
2021/05/07 06:30:21;;;;;;;15.35;13.18;;;;;;;7.87;100.00;97170.22;4971412;28;20110;-80
2021/05/07 06:32:46;;;;;;;18.55;12.38;;;;;;;7.88;100.00;97172.66;4971856;28;20046;-80
2021/05/07 06:35:13;;;;;;;20.23;14.15;;;;;;;7.92;100.00;97176.41;4972722;28;20126;-84
2021/05/07 06:37:39;;;;;;;18.27;14.57;;;;;;;8.07;100.00;97167.97;4968554;28;20415;-79
2021/05/07 06:40:08;;;;;;;22.52;15.98;;;;;;;8.36;100.00;97167.78;4971963;28;20046;-81
2021/05/07 06:42:46;;;;;;;24.38;16.73;;;;;;;8.45;100.00;97174.16;4972375;28;20035;-85
2021/05/07 06:45:16;;;;;;;29.08;17.27;;;;;;;8.37;99.79;97174.00;4983587;28;20019;-84
2021/05/07 06:47:43;;;;;;;23.02;15.55;;;;;;;8.32;100.00;97169.47;4999185;28;20022;-85
2021/05/07 06:50:11;;;;;;;20.92;14.95;;;;;;;8.51;99.81;97164.75;4998806;28;20074;-86
2021/05/07 06:52:37;;;;;;;19.42;12.25;;;;;;;8.58;98.99;97158.91;4993883;28;20039;-87
2021/05/07 06:55:04;;;;;;;17.27;12.20;;;;;;;8.53;99.26;97164.44;4985462;28;20034;-86
2021/05/07 06:57:29;;;;;;;15.65;12.38;;;;;;;8.55;100.00;97160.31;4993998;28;20035;-87
2021/05/07 06:59:55;;;;;;;16.55;11.32;;;;;;;8.62;99.69;97159.91;4978055;28;20038;-85
2021/05/07 07:02:22;;;;;;;13.45;10.38;;;;;;;8.60;99.38;97157.50;4987204;28;20026;-88
2021/05/07 07:04:49;;;;;;;13.70;10.77;;;;;;;8.54;99.96;97147.81;4982904;28;20039;-85
2021/05/07 07:07:15;;;;;;;16.90;10.50;;;;;;;8.63;100.00;97149.81;4983431;28;20030;-87
2021/05/07 07:09:41;;;;;;;12.00;10.68;;;;;;;8.77;99.16;97153.38;4979080;28;20035;-85
2021/05/07 07:12:07;;;;;;;12.18;10.27;;;;;;;8.85;98.20;97152.66;4986081;28;20026;-88
2021/05/07 07:14:38;;;;;;;15.30;10.60;;;;;;;8.81;99.25;97147.00;4987118;28;20007;-86
2021/05/07 07:17:05;;;;;;;11.98;9.45;;;;;;;8.59;98.90;97133.25;4974311;28;20788;-87
2021/05/07 07:19:32;;;;;;;13.50;10.05;;;;;;;8.80;99.66;97139.91;4989976;28;20122;-86
2021/05/07 07:21:57;;;;;;;13.20;9.93;;;;;;;8.93;99.47;97149.19;5006068;28;20002;-84
2021/05/07 07:24:23;;;;;;;12.25;9.63;;;;;;;8.76;98.65;97119.03;5011156;28;20030;-84
2021/05/07 07:26:52;;;;;;;14.18;10.10;;;;;;;9.01;99.26;97152.03;4990572;28;20098;-88
2021/05/07 07:30:23;;;;;;;11.63;9.32;;;;;;;9.11;99.34;97157.25;4995596;28;20023;-86
2021/05/07 07:33:31;;;;;;;7.78;6.18;;;;;;;9.05;99.48;97153.03;4985057;28;20054;-88
2021/05/07 07:35:57;;;;;;;11.45;9.40;;;;;;;9.00;99.73;97155.06;4964462;28;20417;-85
2021/05/07 07:38:28;;;;;;;13.82;9.57;;;;;;;9.09;100.00;97147.75;4998320;28;20061;-88
2021/05/07 07:40:56;;;;;;;13.52;9.48;;;;;;;8.95;100.00;97153.25;4993910;28;20031;-86
2021/05/07 07:43:28;;;;;;;14.55;9.85;;;;;;;9.01;100.00;97156.69;4991197;28;20026;-87
2021/05/07 07:46:52;;;;;;;12.85;10.23;;;;;;;8.92;100.00;97126.59;4996492;28;20083;-84
2021/05/07 07:49:19;;;;;;;18.40;10.52;;;;;;;9.04;100.00;97164.25;4974645;28;20047;-85
2021/05/07 07:52:02;;;;;;;10.68;8.75;;;;;;;9.11;100.00;97140.09;4991938;28;20023;-87
2021/05/07 07:54:30;;;;;;;12.23;9.57;;;;;;;9.23;100.00;97155.94;4996915;28;20102;-86
2021/05/07 07:56:59;;;;;;;15.45;8.88;;;;;;;9.29;100.00;97157.44;4994757;28;20051;-86
2021/05/07 07:59:48;;;;;;;21.85;9.68;;;;;;;9.08;100.00;97133.31;5007522;28;20039;-87
2021/05/07 08:03:22;;;;;;;15.20;9.63;;;;;;;9.21;100.00;97134.41;4978212;28;20035;-85
2021/05/07 08:05:48;;;;;;;19.17;10.88;;;;;;;9.10;100.00;97128.38;4979743;28;20023;-83
2021/05/07 08:08:14;;;;;;;16.40;10.15;;;;;;;9.07;100.00;97139.09;4997062;28;20034;-82
2021/05/07 08:10:40;;;;;;;17.55;10.52;;;;;;;9.14;100.00;97142.22;4998364;28;20090;-82
2021/05/07 08:13:10;;;;;;;15.77;10.82;;;;;;;9.12;100.00;97138.97;4999549;28;20083;-88
2021/05/07 08:15:53;;;;;;;;;;;;;;;9.44;100.00;97174.28;4992250;28;20042;-87
2021/05/07 08:18:18;;;;;;;13.17;10.13;;;;;;;9.47;100.00;97165.47;4951055;29;19942;-88
2021/05/07 08:20:44;;;;;;;11.85;9.48;;;;;;;9.27;100.00;97176.84;4961857;28;20043;-86
2021/05/07 08:23:25;;;;;;;17.23;11.27;;;;;;;9.35;100.00;97180.78;4959814;28;20140;-87
2021/05/07 08:26:20;;;;;;;16.67;12.23;;;;;;;9.38;100.00;97180.97;4945779;28;20075;-88
2021/05/07 08:28:46;;;;;;;18.38;13.98;;;;;;;9.37;100.00;97182.06;4970828;28;20022;-86
2021/05/07 08:31:12;;;;;;;15.82;11.70;;;;;;;9.37;100.00;97181.25;4972204;28;20035;-87
2021/05/07 08:37:59;;;;;;;17.33;12.32;;;;;;;9.38;100.00;97178.25;5002356;28;19974;-85
2021/05/07 08:41:08;;;;;;;14.45;9.95;;;;;;;9.37;100.00;97190.25;4985862;28;20018;-87
2021/05/07 08:46:27;;;;;;;15.13;9.70;;;;;;;9.28;100.00;97167.53;5018034;28;20051;-87
2021/05/07 08:48:54;;;;;;;12.68;10.75;;;;;;;9.33;100.00;97166.63;4996238;28;20083;-91
2021/05/07 08:51:19;;;;;;;13.40;10.27;;;;;;;9.46;100.00;97165.81;4980603;28;20134;-88
2021/05/07 08:53:52;;;;;;;16.13;11.40;;;;;;;9.55;100.00;97156.53;4992355;28;20045;-89
2021/05/07 08:56:36;;;;;;;12.80;10.73;;;;;;;9.98;100.00;97180.69;5073177;22;20105;-87
2021/05/07 08:59:06;;;;;;;11.57;9.40;;;;;;;10.04;100.00;97179.44;5025898;28;20049;-85
2021/05/07 09:02:12;;;;;;;12.05;10.00;;;;;;;10.05;100.00;97202.91;5005483;28;20299;-83
2021/05/07 09:04:48;;;;;;;11.55;9.52;;;;;;;10.09;100.00;97187.50;5002632;28;20093;-87
2021/05/07 09:07:33;;;;;;;16.60;10.52;;;;;;;10.22;100.00;97192.13;4992453;28;20033;-89
2021/05/07 09:10:32;;;;;;;13.23;10.40;;;;;;;10.30;100.00;97190.56;5019502;28;20018;-86
2021/05/07 09:12:58;;;;;;;15.98;10.32;;;;;;;10.31;100.00;97192.16;5006666;28;20033;-87
2021/05/07 09:15:23;;;;;;;13.65;9.88;;;;;;;10.24;100.00;97195.38;5003239;28;20099;-86
2021/05/07 09:18:00;;;;;;;13.75;9.98;;;;;;;10.28;100.00;97196.34;5002160;28;20117;-86
2021/05/07 09:20:35;;;;;;;13.77;10.95;;;;;;;10.35;100.00;97190.44;4996125;28;20026;-87
2021/05/07 09:23:05;;;;;;;13.00;9.38;;;;;;;10.41;100.00;97189.19;5005107;28;20029;-89
2021/05/07 09:25:31;;;;;;;16.42;10.88;;;;;;;10.53;100.00;97203.06;5000375;28;20042;-86
2021/05/07 09:28:11;;;;;;;14.02;11.23;;;;;;;10.19;100.00;97190.00;5003430;28;20034;-86
2021/05/07 09:30:37;;;;;;;16.77;12.63;;;;;;;10.09;100.00;97182.03;4997600;28;20049;-84
2021/05/07 09:33:09;;;;;;;19.27;14.75;;;;;;;10.01;100.00;97197.25;5001630;28;20084;-86
2021/05/07 09:35:36;;;;;;;24.95;15.93;;;;;;;9.80;100.00;97184.41;5003925;28;20026;-84
2021/05/07 09:38:04;;;;;;;21.27;16.52;;;;;;;9.84;100.00;97185.38;5001885;28;20030;-87
2021/05/07 09:40:31;;;;;;;21.13;17.30;;;;;;;9.95;100.00;97197.69;4994649;28;20041;-81
2021/05/07 09:43:10;;;;;;;27.73;20.50;;;;;;;10.06;100.00;97188.13;5012171;28;20124;-83
2021/05/07 09:45:38;;;;;;;23.77;19.33;;;;;;;10.11;100.00;97186.09;5012489;28;20682;-80
2021/05/07 09:48:14;;;;;;;23.83;19.02;;;;;;;10.17;100.00;97193.06;5011308;28;20482;-81
2021/05/07 09:50:40;;;;;;;23.70;16.73;;;;;;;10.28;100.00;97188.13;4995146;28;20030;-82
2021/05/07 09:53:13;;;;;;;29.48;18.77;;;;;;;10.28;100.00;97193.59;5012545;28;20517;-83
2021/05/07 09:55:39;;;;;;;23.30;19.27;;;;;;;10.23;100.00;97192.94;5012488;28;20548;-84
2021/05/07 09:58:05;;;;;;;24.38;17.50;;;;;;;10.34;100.00;97188.84;5012029;28;20120;-84
2021/05/07 10:00:31;;;;;;;20.35;16.20;;;;;;;10.55;100.00;97185.25;4994559;28;20025;-82
2021/05/07 10:02:57;;;;;;;17.98;15.18;;;;;;;10.55;100.00;97188.00;4995285;28;20021;-81
2021/05/07 10:05:23;;;;;;;23.52;16.00;;;;;;;10.63;100.00;97195.41;5013080;28;20537;-81
2021/05/07 10:07:49;;;;;;;18.65;15.50;;;;;;;10.80;100.00;97174.75;5011840;28;20033;-82
2021/05/07 10:10:15;;;;;;;19.27;15.48;;;;;;;10.69;100.00;97172.28;5010799;28;20412;-84
2021/05/07 10:12:44;;;;;;;15.32;12.70;;;;;;;10.85;100.00;97174.59;5010646;28;20033;-81
2021/05/07 10:15:11;;;;;;;18.95;15.93;;;;;;;10.99;100.00;97178.03;5010783;28;20030;-79
2021/05/07 10:17:36;;;;;;;19.70;14.30;;;;;;;11.15;100.00;97181.97;5007214;28;20026;-81
2021/05/07 10:20:02;;;;;;;17.77;13.75;;;;;;;11.17;100.00;97180.50;4992131;28;22108;-79
2021/05/07 10:22:38;;;;;;;22.92;14.57;;;;;;;10.99;100.00;97181.59;5009805;28;20096;-79
2021/05/07 10:25:22;;;;;;;24.38;15.38;;;;;;;10.98;100.00;97192.84;4989765;28;20018;-81
2021/05/07 10:27:50;;;;;;;21.42;15.82;;;;;;;10.94;100.00;97183.63;5008320;28;20438;-78
2021/05/07 10:30:31;;;;;;;20.83;15.30;;;;;;;10.88;100.00;97193.09;5009808;28;20017;-81
2021/05/07 10:33:04;;;;;;;23.95;17.02;;;;;;;10.90;100.00;97183.47;4984122;28;20040;-79
2021/05/07 10:35:32;;;;;;;18.38;14.77;;;;;;;10.96;100.00;97190.44;4992019;28;20057;-81
2021/05/07 10:38:12;;;;;;;15.77;12.63;;;;;;;11.07;100.00;97194.47;5006865;28;20024;-79
2021/05/07 10:40:38;;;;;;;15.13;12.57;;;;;;;11.12;100.00;97191.59;4992107;28;20067;-81
2021/05/07 10:43:04;;;;;;;17.20;12.27;;;;;;;11.25;100.00;97198.06;4992313;28;20041;-79
2021/05/07 10:45:44;;;;;;;14.70;11.40;;;;;;;11.17;100.00;97187.91;5009198;28;20024;-80
2021/05/07 10:48:18;;;;;;;23.63;10.20;;;;;;;11.16;100.00;97187.09;4984887;28;20079;-78
2021/05/07 10:50:46;;;;;;;12.43;9.55;;;;;;;11.12;100.00;97193.53;4984853;28;20041;-79
2021/05/07 10:53:32;;;;;;;13.98;10.77;;;;;;;11.37;100.00;97190.03;4991937;28;20018;-80
2021/05/07 10:55:58;;;;;;;16.00;9.85;;;;;;;11.34;100.00;97195.38;5006416;28;20546;-81
2021/05/07 10:58:34;;;;;;;10.93;9.15;;;;;;;11.54;100.00;97190.06;5008928;28;20100;-80
2021/05/07 11:01:00;;;;;;;;;;;;;;;11.61;100.00;97200.56;5007240;28;20037;-79
2021/05/07 11:03:25;;;;;;;12.80;9.90;;;;;;;11.65;100.00;97199.59;5009388;28;19917;-79
2021/05/07 11:05:51;;;;;;;17.90;9.65;;;;;;;11.71;100.00;97195.63;5008527;28;20033;-80
2021/05/07 11:08:17;;;;;;;16.02;11.30;;;;;;;11.71;100.00;97198.34;5008967;28;20022;-78
2021/05/07 11:10:43;;;;;;;12.95;11.50;;;;;;;11.92;100.00;97200.44;5009188;28;20026;-81
2021/05/07 11:13:10;;;;;;;14.52;10.98;;;;;;;12.10;100.00;97196.56;5009212;28;20072;-79
2021/05/07 11:15:36;;;;;;;14.43;10.75;;;;;;;12.17;100.00;97189.47;5008777;28;20032;-83
2021/05/07 11:18:01;;;;;;;14.63;11.50;;;;;;;12.17;100.00;97200.44;4991359;28;20025;-80
2021/05/07 11:20:32;;;;;;;17.85;10.95;;;;;;;12.31;100.00;97194.75;5009566;28;20034;-81
2021/05/07 11:22:58;;;;;;;14.85;10.32;;;;;;;12.55;100.00;97200.53;4992080;28;20026;-83
2021/05/07 11:25:24;;;;;;;18.00;12.35;;;;;;;12.70;100.00;97205.50;5009223;28;20029;-81
2021/05/07 11:27:50;;;;;;;13.23;9.40;;;;;;;12.46;100.00;97213.47;5010112;28;20605;-80
2021/05/07 11:30:16;;;;;;;16.33;11.77;;;;;;;12.13;100.00;97195.91;5007685;28;20069;-80
2021/05/07 11:32:41;;;;;;;16.67;10.68;;;;;;;12.20;100.00;97215.44;5007681;28;20382;-80
2021/05/07 11:35:09;;;;;;;16.70;11.52;;;;;;;12.27;100.00;97218.50;5009113;28;20026;-79
2021/05/07 11:37:38;;;;;;;16.02;10.98;;;;;;;12.17;100.00;97214.16;5007040;28;20018;-80